sensor_id;sensor_type;location;lat;lon;timestamp;P1;durP1;ratioP1;P2;durP2;ratioP2
9739;SDS011;4909;42.680;26.324;2023-02-02T00:01:17;4.00;;;1.37;;
9739;SDS011;4909;42.680;26.324;2023-02-02T00:03:44;5.80;;;1.73;;
9739;SDS011;4909;42.680;26.324;2023-02-02T00:06:14;3.37;;;1.27;;
9739;SDS011;4909;42.680;26.324;2023-02-02T00:08:41;3.00;;;1.10;;
9739;SDS011;4909;42.680;26.324;2023-02-02T00:11:08;3.60;;;1.37;;
9739;SDS011;4909;42.680;26.324;2023-02-02T00:13:36;5.37;;;1.63;;
9739;SDS011;4909;42.680;26.324;2023-02-02T00:19:08;4.33;;;1.40;;
9739;SDS011;4909;42.680;26.324;2023-02-02T00:21:35;6.20;;;1.80;;
9739;SDS011;4909;42.680;26.324;2023-02-02T00:24:03;6.60;;;1.83;;
9739;SDS011;4909;42.680;26.324;2023-02-02T00:26:31;5.43;;;1.57;;
9739;SDS011;4909;42.680;26.324;2023-02-02T00:28:59;3.60;;;1.20;;
9739;SDS011;4909;42.680;26.324;2023-02-02T00:31:26;3.20;;;1.13;;
9739;SDS011;4909;42.680;26.324;2023-02-02T00:33:53;3.93;;;1.23;;
9739;SDS011;4909;42.680;26.324;2023-02-02T00:36:20;3.97;;;1.37;;
9739;SDS011;4909;42.680;26.324;2023-02-02T00:38:47;6.60;;;1.77;;
9739;SDS011;4909;42.680;26.324;2023-02-02T00:41:14;7.53;;;2.20;;
9739;SDS011;4909;42.680;26.324;2023-02-02T00:43:42;4.80;;;1.53;;
9739;SDS011;4909;42.680;26.324;2023-02-02T00:46:13;4.77;;;1.57;;
9739;SDS011;4909;42.680;26.324;2023-02-02T00:48:43;6.07;;;1.77;;
9739;SDS011;4909;42.680;26.324;2023-02-02T00:51:09;4.80;;;1.37;;
9739;SDS011;4909;42.680;26.324;2023-02-02T00:53:36;5.80;;;1.77;;
9739;SDS011;4909;42.680;26.324;2023-02-02T00:56:03;6.47;;;1.90;;
9739;SDS011;4909;42.680;26.324;2023-02-02T00:58:30;6.13;;;1.73;;
9739;SDS011;4909;42.680;26.324;2023-02-02T01:00:57;5.03;;;1.50;;
9739;SDS011;4909;42.680;26.324;2023-02-02T01:03:25;6.47;;;1.83;;
9739;SDS011;4909;42.680;26.324;2023-02-02T01:05:52;6.13;;;1.73;;
9739;SDS011;4909;42.680;26.324;2023-02-02T01:08:18;5.63;;;1.67;;
9739;SDS011;4909;42.680;26.324;2023-02-02T01:10:45;5.90;;;1.73;;
9739;SDS011;4909;42.680;26.324;2023-02-02T01:13:12;6.40;;;1.87;;
9739;SDS011;4909;42.680;26.324;2023-02-02T01:15:38;5.60;;;1.60;;
9739;SDS011;4909;42.680;26.324;2023-02-02T01:18:05;4.40;;;1.33;;
9739;SDS011;4909;42.680;26.324;2023-02-02T01:20:33;4.17;;;1.40;;
9739;SDS011;4909;42.680;26.324;2023-02-02T01:23:00;5.80;;;1.70;;
9739;SDS011;4909;42.680;26.324;2023-02-02T01:25:27;6.23;;;1.73;;
9739;SDS011;4909;42.680;26.324;2023-02-02T01:27:54;8.23;;;2.20;;
9739;SDS011;4909;42.680;26.324;2023-02-02T01:30:21;8.80;;;2.43;;
9739;SDS011;4909;42.680;26.324;2023-02-02T01:32:48;4.43;;;1.37;;
9739;SDS011;4909;42.680;26.324;2023-02-02T01:35:14;4.97;;;1.60;;
9739;SDS011;4909;42.680;26.324;2023-02-02T01:37:42;4.90;;;1.47;;
9739;SDS011;4909;42.680;26.324;2023-02-02T01:40:10;4.30;;;1.37;;
9739;SDS011;4909;42.680;26.324;2023-02-02T01:42:37;4.90;;;1.50;;
9739;SDS011;4909;42.680;26.324;2023-02-02T01:47:50;4.23;;;1.30;;
9739;SDS011;4909;42.680;26.324;2023-02-02T01:50:20;6.50;;;1.90;;
9739;SDS011;4909;42.680;26.324;2023-02-02T01:52:51;7.47;;;2.07;;
9739;SDS011;4909;42.680;26.324;2023-02-02T01:55:22;7.20;;;1.93;;
9739;SDS011;4909;42.680;26.324;2023-02-02T01:57:52;4.57;;;1.47;;
9739;SDS011;4909;42.680;26.324;2023-02-02T02:00:23;4.63;;;1.40;;
9739;SDS011;4909;42.680;26.324;2023-02-02T02:02:52;7.20;;;1.93;;
9739;SDS011;4909;42.680;26.324;2023-02-02T02:05:23;5.77;;;1.67;;
9739;SDS011;4909;42.680;26.324;2023-02-02T02:07:55;6.23;;;1.90;;
9739;SDS011;4909;42.680;26.324;2023-02-02T02:10:28;6.67;;;1.83;;
9739;SDS011;4909;42.680;26.324;2023-02-02T02:12:54;8.13;;;2.17;;
9739;SDS011;4909;42.680;26.324;2023-02-02T02:15:21;9.93;;;2.53;;
9739;SDS011;4909;42.680;26.324;2023-02-02T02:18:17;4.57;;;1.53;;
9739;SDS011;4909;42.680;26.324;2023-02-02T02:21:01;5.80;;;1.73;;
9739;SDS011;4909;42.680;26.324;2023-02-02T02:28:14;3.57;;;1.17;;
9739;SDS011;4909;42.680;26.324;2023-02-02T02:31:07;6.20;;;1.73;;
9739;SDS011;4909;42.680;26.324;2023-02-02T02:33:56;4.03;;;1.37;;
9739;SDS011;4909;42.680;26.324;2023-02-02T02:36:32;4.63;;;1.43;;
9739;SDS011;4909;42.680;26.324;2023-02-02T02:39:11;4.93;;;1.53;;
9739;SDS011;4909;42.680;26.324;2023-02-02T02:41:45;5.07;;;1.63;;
9739;SDS011;4909;42.680;26.324;2023-02-02T02:44:17;6.53;;;1.90;;
9739;SDS011;4909;42.680;26.324;2023-02-02T02:46:46;5.33;;;1.53;;
9739;SDS011;4909;42.680;26.324;2023-02-02T02:49:16;5.20;;;1.47;;
9739;SDS011;4909;42.680;26.324;2023-02-02T02:51:44;5.20;;;1.60;;
9739;SDS011;4909;42.680;26.324;2023-02-02T02:54:14;5.00;;;1.53;;
9739;SDS011;4909;42.680;26.324;2023-02-02T02:56:47;6.40;;;1.83;;
9739;SDS011;4909;42.680;26.324;2023-02-02T02:59:28;6.10;;;1.70;;
9739;SDS011;4909;42.680;26.324;2023-02-02T03:02:03;5.93;;;1.77;;
9739;SDS011;4909;42.680;26.324;2023-02-02T03:04:49;3.93;;;1.30;;
9739;SDS011;4909;42.680;26.324;2023-02-02T03:07:27;5.77;;;1.63;;
9739;SDS011;4909;42.680;26.324;2023-02-02T03:10:00;7.63;;;2.07;;
9739;SDS011;4909;42.680;26.324;2023-02-02T03:12:29;5.33;;;1.73;;
9739;SDS011;4909;42.680;26.324;2023-02-02T03:14:56;5.73;;;1.67;;
9739;SDS011;4909;42.680;26.324;2023-02-02T03:17:22;8.13;;;2.23;;
9739;SDS011;4909;42.680;26.324;2023-02-02T03:19:50;5.47;;;1.70;;
9739;SDS011;4909;42.680;26.324;2023-02-02T03:22:17;7.97;;;2.13;;
9739;SDS011;4909;42.680;26.324;2023-02-02T03:24:44;4.80;;;1.40;;
9739;SDS011;4909;42.680;26.324;2023-02-02T03:27:11;5.83;;;1.70;;
9739;SDS011;4909;42.680;26.324;2023-02-02T03:29:37;5.20;;;1.70;;
9739;SDS011;4909;42.680;26.324;2023-02-02T03:32:04;5.20;;;1.67;;
9739;SDS011;4909;42.680;26.324;2023-02-02T03:34:31;6.30;;;1.80;;
9739;SDS011;4909;42.680;26.324;2023-02-02T03:36:59;4.33;;;1.40;;
9739;SDS011;4909;42.680;26.324;2023-02-02T03:39:26;4.57;;;1.47;;
9739;SDS011;4909;42.680;26.324;2023-02-02T03:41:53;4.60;;;1.43;;
9739;SDS011;4909;42.680;26.324;2023-02-02T03:44:19;4.57;;;1.50;;
9739;SDS011;4909;42.680;26.324;2023-02-02T03:46:46;5.50;;;1.63;;
9739;SDS011;4909;42.680;26.324;2023-02-02T03:49:13;3.23;;;1.20;;
9739;SDS011;4909;42.680;26.324;2023-02-02T03:51:39;2.57;;;1.10;;
9739;SDS011;4909;42.680;26.324;2023-02-02T03:54:09;5.67;;;1.67;;
9739;SDS011;4909;42.680;26.324;2023-02-02T03:56:36;6.70;;;1.87;;
9739;SDS011;4909;42.680;26.324;2023-02-02T03:59:03;6.97;;;2.03;;
9739;SDS011;4909;42.680;26.324;2023-02-02T04:01:30;6.83;;;1.93;;
9739;SDS011;4909;42.680;26.324;2023-02-02T04:03:57;5.77;;;1.73;;
9739;SDS011;4909;42.680;26.324;2023-02-02T04:06:24;4.43;;;1.47;;
9739;SDS011;4909;42.680;26.324;2023-02-02T04:08:52;2.07;;;0.90;;
9739;SDS011;4909;42.680;26.324;2023-02-02T04:11:20;3.50;;;1.20;;
9739;SDS011;4909;42.680;26.324;2023-02-02T04:13:47;3.57;;;1.30;;
9739;SDS011;4909;42.680;26.324;2023-02-02T04:16:13;5.10;;;1.60;;
9739;SDS011;4909;42.680;26.324;2023-02-02T04:18:40;6.17;;;1.80;;
9739;SDS011;4909;42.680;26.324;2023-02-02T04:21:07;3.23;;;1.17;;
9739;SDS011;4909;42.680;26.324;2023-02-02T04:23:34;5.83;;;1.67;;
9739;SDS011;4909;42.680;26.324;2023-02-02T04:26:01;5.93;;;1.80;;
9739;SDS011;4909;42.680;26.324;2023-02-02T04:28:30;3.03;;;1.17;;
9739;SDS011;4909;42.680;26.324;2023-02-02T04:30:57;6.30;;;1.83;;
9739;SDS011;4909;42.680;26.324;2023-02-02T04:33:25;3.50;;;1.20;;
9739;SDS011;4909;42.680;26.324;2023-02-02T04:35:52;6.57;;;1.87;;
9739;SDS011;4909;42.680;26.324;2023-02-02T04:38:19;9.50;;;2.50;;
9739;SDS011;4909;42.680;26.324;2023-02-02T04:40:46;6.13;;;1.77;;
9739;SDS011;4909;42.680;26.324;2023-02-02T04:43:13;4.53;;;1.43;;
9739;SDS011;4909;42.680;26.324;2023-02-02T04:45:41;5.40;;;1.63;;
9739;SDS011;4909;42.680;26.324;2023-02-02T04:48:09;5.77;;;1.63;;
9739;SDS011;4909;42.680;26.324;2023-02-02T04:50:36;4.90;;;1.53;;
9739;SDS011;4909;42.680;26.324;2023-02-02T04:53:03;11.13;;;2.80;;
9739;SDS011;4909;42.680;26.324;2023-02-02T04:55:30;7.17;;;1.93;;
9739;SDS011;4909;42.680;26.324;2023-02-02T04:58:00;4.33;;;1.33;;
9739;SDS011;4909;42.680;26.324;2023-02-02T05:00:27;7.23;;;2.00;;
9739;SDS011;4909;42.680;26.324;2023-02-02T05:02:55;4.83;;;1.43;;
9739;SDS011;4909;42.680;26.324;2023-02-02T05:05:22;5.70;;;1.67;;
9739;SDS011;4909;42.680;26.324;2023-02-02T05:07:48;4.93;;;1.53;;
9739;SDS011;4909;42.680;26.324;2023-02-02T05:10:15;6.83;;;1.93;;
9739;SDS011;4909;42.680;26.324;2023-02-02T05:12:42;6.43;;;1.83;;
9739;SDS011;4909;42.680;26.324;2023-02-02T05:15:09;5.90;;;1.73;;
9739;SDS011;4909;42.680;26.324;2023-02-02T05:17:36;7.20;;;1.93;;
9739;SDS011;4909;42.680;26.324;2023-02-02T05:20:05;7.53;;;2.10;;
9739;SDS011;4909;42.680;26.324;2023-02-02T05:22:32;2.87;;;1.00;;
9739;SDS011;4909;42.680;26.324;2023-02-02T05:25:00;7.43;;;2.07;;
9739;SDS011;4909;42.680;26.324;2023-02-02T05:27:26;6.20;;;1.77;;
9739;SDS011;4909;42.680;26.324;2023-02-02T05:29:53;3.30;;;1.07;;
9739;SDS011;4909;42.680;26.324;2023-02-02T05:32:20;2.63;;;1.03;;
9739;SDS011;4909;42.680;26.324;2023-02-02T05:34:46;4.77;;;1.40;;
9739;SDS011;4909;42.680;26.324;2023-02-02T05:37:15;5.90;;;1.77;;
9739;SDS011;4909;42.680;26.324;2023-02-02T05:39:41;10.00;;;2.57;;
9739;SDS011;4909;42.680;26.324;2023-02-02T05:42:08;5.37;;;1.60;;
9739;SDS011;4909;42.680;26.324;2023-02-02T05:44:35;5.20;;;1.67;;
9739;SDS011;4909;42.680;26.324;2023-02-02T05:47:02;6.57;;;1.83;;
9739;SDS011;4909;42.680;26.324;2023-02-02T05:49:28;3.83;;;1.33;;
9739;SDS011;4909;42.680;26.324;2023-02-02T05:51:55;7.03;;;2.07;;
9739;SDS011;4909;42.680;26.324;2023-02-02T05:54:24;6.37;;;1.80;;
9739;SDS011;4909;42.680;26.324;2023-02-02T05:56:52;8.90;;;2.43;;
9739;SDS011;4909;42.680;26.324;2023-02-02T05:59:19;6.73;;;1.83;;
9739;SDS011;4909;42.680;26.324;2023-02-02T06:01:47;7.90;;;2.07;;
9739;SDS011;4909;42.680;26.324;2023-02-02T06:04:14;4.60;;;1.40;;
9739;SDS011;4909;42.680;26.324;2023-02-02T06:06:41;3.30;;;1.13;;
9739;SDS011;4909;42.680;26.324;2023-02-02T06:09:08;4.77;;;1.53;;
9739;SDS011;4909;42.680;26.324;2023-02-02T06:11:37;6.63;;;1.83;;
9739;SDS011;4909;42.680;26.324;2023-02-02T06:14:04;7.13;;;1.97;;
9739;SDS011;4909;42.680;26.324;2023-02-02T06:16:31;2.53;;;1.00;;
9739;SDS011;4909;42.680;26.324;2023-02-02T06:18:58;5.47;;;1.53;;
9739;SDS011;4909;42.680;26.324;2023-02-02T06:21:24;5.10;;;1.50;;
9739;SDS011;4909;42.680;26.324;2023-02-02T06:23:55;5.97;;;1.70;;
9739;SDS011;4909;42.680;26.324;2023-02-02T06:26:23;9.27;;;2.47;;
9739;SDS011;4909;42.680;26.324;2023-02-02T06:28:52;5.80;;;1.70;;
9739;SDS011;4909;42.680;26.324;2023-02-02T06:31:19;2.70;;;0.97;;
9739;SDS011;4909;42.680;26.324;2023-02-02T06:33:47;7.37;;;2.00;;
9739;SDS011;4909;42.680;26.324;2023-02-02T06:36:18;8.37;;;2.30;;
9739;SDS011;4909;42.680;26.324;2023-02-02T06:38:47;1.80;;;0.87;;
9739;SDS011;4909;42.680;26.324;2023-02-02T06:41:14;3.80;;;1.23;;
9739;SDS011;4909;42.680;26.324;2023-02-02T06:43:41;2.53;;;1.03;;
9739;SDS011;4909;42.680;26.324;2023-02-02T06:46:09;5.70;;;1.83;;
9739;SDS011;4909;42.680;26.324;2023-02-02T06:48:35;5.70;;;1.77;;
9739;SDS011;4909;42.680;26.324;2023-02-02T06:51:02;6.73;;;1.93;;
9739;SDS011;4909;42.680;26.324;2023-02-02T06:53:30;6.87;;;2.03;;
9739;SDS011;4909;42.680;26.324;2023-02-02T06:55:57;4.87;;;1.63;;
9739;SDS011;4909;42.680;26.324;2023-02-02T06:58:27;9.30;;;2.57;;
9739;SDS011;4909;42.680;26.324;2023-02-02T07:00:59;7.57;;;2.17;;
9739;SDS011;4909;42.680;26.324;2023-02-02T07:03:31;8.17;;;2.47;;
9739;SDS011;4909;42.680;26.324;2023-02-02T07:05:58;6.73;;;2.07;;
9739;SDS011;4909;42.680;26.324;2023-02-02T07:08:25;8.20;;;2.47;;
9739;SDS011;4909;42.680;26.324;2023-02-02T07:10:51;7.73;;;2.47;;
9739;SDS011;4909;42.680;26.324;2023-02-02T07:13:18;7.37;;;2.30;;
9739;SDS011;4909;42.680;26.324;2023-02-02T07:15:45;8.40;;;2.67;;
9739;SDS011;4909;42.680;26.324;2023-02-02T07:18:12;7.63;;;2.83;;
9739;SDS011;4909;42.680;26.324;2023-02-02T07:20:40;10.20;;;3.63;;
9739;SDS011;4909;42.680;26.324;2023-02-02T07:23:07;5.77;;;2.60;;
9739;SDS011;4909;42.680;26.324;2023-02-02T07:25:34;8.30;;;3.13;;
9739;SDS011;4909;42.680;26.324;2023-02-02T07:28:01;7.00;;;3.27;;
9739;SDS011;4909;42.680;26.324;2023-02-02T07:30:27;8.00;;;3.30;;
9739;SDS011;4909;42.680;26.324;2023-02-02T07:32:54;7.80;;;3.27;;
9739;SDS011;4909;42.680;26.324;2023-02-02T07:35:21;5.50;;;3.13;;
9739;SDS011;4909;42.680;26.324;2023-02-02T07:37:51;8.60;;;4.87;;
9739;SDS011;4909;42.680;26.324;2023-02-02T07:40:18;9.30;;;4.67;;
9739;SDS011;4909;42.680;26.324;2023-02-02T07:42:45;7.87;;;4.40;;
9739;SDS011;4909;42.680;26.324;2023-02-02T07:45:13;9.03;;;4.80;;
9739;SDS011;4909;42.680;26.324;2023-02-02T07:47:40;15.00;;;6.07;;
9739;SDS011;4909;42.680;26.324;2023-02-02T07:50:07;9.77;;;5.47;;
9739;SDS011;4909;42.680;26.324;2023-02-02T07:52:34;8.77;;;5.23;;
9739;SDS011;4909;42.680;26.324;2023-02-02T07:55:03;4.90;;;4.23;;
9739;SDS011;4909;42.680;26.324;2023-02-02T07:57:30;13.67;;;7.47;;
9739;SDS011;4909;42.680;26.324;2023-02-02T07:59:57;7.87;;;5.73;;
9739;SDS011;4909;42.680;26.324;2023-02-02T08:02:23;13.27;;;6.77;;
9739;SDS011;4909;42.680;26.324;2023-02-02T08:04:50;14.43;;;7.57;;
9739;SDS011;4909;42.680;26.324;2023-02-02T08:07:17;10.03;;;5.87;;
9739;SDS011;4909;42.680;26.324;2023-02-02T08:09:48;6.50;;;3.87;;
9739;SDS011;4909;42.680;26.324;2023-02-02T08:12:17;10.53;;;4.00;;
9739;SDS011;4909;42.680;26.324;2023-02-02T08:14:45;9.43;;;3.63;;
9739;SDS011;4909;42.680;26.324;2023-02-02T08:17:12;6.27;;;2.70;;
9739;SDS011;4909;42.680;26.324;2023-02-02T08:19:39;9.80;;;3.67;;
9739;SDS011;4909;42.680;26.324;2023-02-02T08:22:05;10.73;;;3.47;;
9739;SDS011;4909;42.680;26.324;2023-02-02T08:24:32;8.70;;;2.77;;
9739;SDS011;4909;42.680;26.324;2023-02-02T08:27:04;6.67;;;2.27;;
9739;SDS011;4909;42.680;26.324;2023-02-02T08:29:33;13.70;;;3.47;;
9739;SDS011;4909;42.680;26.324;2023-02-02T08:31:59;7.93;;;2.23;;
9739;SDS011;4909;42.680;26.324;2023-02-02T08:34:26;8.40;;;2.30;;
9739;SDS011;4909;42.680;26.324;2023-02-02T08:36:53;6.60;;;1.83;;
9739;SDS011;4909;42.680;26.324;2023-02-02T08:39:20;11.60;;;2.87;;
9739;SDS011;4909;42.680;26.324;2023-02-02T08:41:47;4.53;;;1.43;;
9739;SDS011;4909;42.680;26.324;2023-02-02T08:44:14;7.50;;;2.00;;
9739;SDS011;4909;42.680;26.324;2023-02-02T08:46:43;6.70;;;1.83;;
9739;SDS011;4909;42.680;26.324;2023-02-02T08:49:10;8.57;;;2.20;;
9739;SDS011;4909;42.680;26.324;2023-02-02T08:51:37;6.23;;;1.77;;
9739;SDS011;4909;42.680;26.324;2023-02-02T08:54:04;7.23;;;2.00;;
9739;SDS011;4909;42.680;26.324;2023-02-02T08:56:30;11.10;;;2.60;;
9739;SDS011;4909;42.680;26.324;2023-02-02T08:58:57;15.07;;;3.43;;
9739;SDS011;4909;42.680;26.324;2023-02-02T09:01:24;9.70;;;2.50;;
9739;SDS011;4909;42.680;26.324;2023-02-02T09:03:55;9.83;;;2.47;;
9739;SDS011;4909;42.680;26.324;2023-02-02T09:06:24;5.63;;;1.70;;
9739;SDS011;4909;42.680;26.324;2023-02-02T09:08:53;6.00;;;1.60;;
9739;SDS011;4909;42.680;26.324;2023-02-02T09:11:20;2.10;;;0.87;;
9739;SDS011;4909;42.680;26.324;2023-02-02T09:13:47;6.83;;;1.97;;
9739;SDS011;4909;42.680;26.324;2023-02-02T09:16:18;7.70;;;2.03;;
9739;SDS011;4909;42.680;26.324;2023-02-02T09:18:46;2.87;;;1.13;;
9739;SDS011;4909;42.680;26.324;2023-02-02T09:21:15;6.07;;;1.73;;
9739;SDS011;4909;42.680;26.324;2023-02-02T09:23:43;6.20;;;1.80;;
9739;SDS011;4909;42.680;26.324;2023-02-02T09:26:11;6.63;;;1.80;;
9739;SDS011;4909;42.680;26.324;2023-02-02T09:28:40;8.13;;;2.13;;
9739;SDS011;4909;42.680;26.324;2023-02-02T09:31:08;12.23;;;3.03;;
9739;SDS011;4909;42.680;26.324;2023-02-02T09:33:35;8.40;;;2.23;;
9739;SDS011;4909;42.680;26.324;2023-02-02T09:36:06;8.03;;;2.37;;
9739;SDS011;4909;42.680;26.324;2023-02-02T09:38:35;5.60;;;1.90;;
9739;SDS011;4909;42.680;26.324;2023-02-02T09:41:12;5.87;;;1.93;;
9739;SDS011;4909;42.680;26.324;2023-02-02T09:43:52;7.00;;;2.00;;
9739;SDS011;4909;42.680;26.324;2023-02-02T09:46:28;3.80;;;1.47;;
9739;SDS011;4909;42.680;26.324;2023-02-02T09:49:01;6.87;;;2.03;;
9739;SDS011;4909;42.680;26.324;2023-02-02T09:51:33;8.60;;;2.23;;
9739;SDS011;4909;42.680;26.324;2023-02-02T09:54:09;4.63;;;1.53;;
9739;SDS011;4909;42.680;26.324;2023-02-02T09:56:42;5.30;;;1.63;;
9739;SDS011;4909;42.680;26.324;2023-02-02T09:59:16;5.80;;;1.83;;
9739;SDS011;4909;42.680;26.324;2023-02-02T10:01:46;6.10;;;2.03;;
9739;SDS011;4909;42.680;26.324;2023-02-02T10:04:17;8.80;;;2.30;;
9739;SDS011;4909;42.680;26.324;2023-02-02T10:06:47;8.53;;;2.33;;
9739;SDS011;4909;42.680;26.324;2023-02-02T10:09:24;7.13;;;2.03;;
9739;SDS011;4909;42.680;26.324;2023-02-02T10:11:58;7.20;;;2.00;;
9739;SDS011;4909;42.680;26.324;2023-02-02T10:14:32;3.20;;;1.13;;
9739;SDS011;4909;42.680;26.324;2023-02-02T10:17:06;6.07;;;1.73;;
9739;SDS011;4909;42.680;26.324;2023-02-02T10:19:49;2.83;;;1.20;;
9739;SDS011;4909;42.680;26.324;2023-02-02T10:22:21;9.60;;;2.57;;
9739;SDS011;4909;42.680;26.324;2023-02-02T10:24:55;7.33;;;2.07;;
9739;SDS011;4909;42.680;26.324;2023-02-02T10:27:23;2.07;;;1.10;;
9739;SDS011;4909;42.680;26.324;2023-02-02T10:30:00;5.83;;;1.73;;
9739;SDS011;4909;42.680;26.324;2023-02-02T10:32:38;9.53;;;2.40;;
9739;SDS011;4909;42.680;26.324;2023-02-02T10:35:19;2.73;;;1.13;;
9739;SDS011;4909;42.680;26.324;2023-02-02T10:37:55;10.30;;;2.77;;
9739;SDS011;4909;42.680;26.324;2023-02-02T10:40:35;5.93;;;1.87;;
9739;SDS011;4909;42.680;26.324;2023-02-02T10:43:13;7.00;;;2.10;;
9739;SDS011;4909;42.680;26.324;2023-02-02T10:46:10;4.80;;;1.53;;
9739;SDS011;4909;42.680;26.324;2023-02-02T10:48:42;7.23;;;2.00;;
9739;SDS011;4909;42.680;26.324;2023-02-02T10:51:13;4.60;;;1.57;;
9739;SDS011;4909;42.680;26.324;2023-02-02T10:53:48;6.13;;;1.83;;
9739;SDS011;4909;42.680;26.324;2023-02-02T10:56:18;4.87;;;1.67;;
9739;SDS011;4909;42.680;26.324;2023-02-02T10:58:53;16.23;;;3.90;;
9739;SDS011;4909;42.680;26.324;2023-02-02T11:01:27;7.57;;;2.20;;
9739;SDS011;4909;42.680;26.324;2023-02-02T11:03:53;11.27;;;2.70;;
9739;SDS011;4909;42.680;26.324;2023-02-02T11:06:35;7.23;;;2.03;;
9739;SDS011;4909;42.680;26.324;2023-02-02T11:09:18;5.23;;;1.60;;
9739;SDS011;4909;42.680;26.324;2023-02-02T11:11:50;7.83;;;2.13;;
9739;SDS011;4909;42.680;26.324;2023-02-02T11:14:23;7.93;;;2.10;;
9739;SDS011;4909;42.680;26.324;2023-02-02T11:17:02;7.90;;;2.20;;
9739;SDS011;4909;42.680;26.324;2023-02-02T11:19:33;7.17;;;2.03;;
9739;SDS011;4909;42.680;26.324;2023-02-02T11:22:02;6.57;;;1.93;;
9739;SDS011;4909;42.680;26.324;2023-02-02T11:24:30;8.87;;;2.30;;
9739;SDS011;4909;42.680;26.324;2023-02-02T11:27:03;7.27;;;2.20;;
9739;SDS011;4909;42.680;26.324;2023-02-02T11:29:40;5.77;;;1.77;;
9739;SDS011;4909;42.680;26.324;2023-02-02T11:32:25;7.53;;;2.20;;
9739;SDS011;4909;42.680;26.324;2023-02-02T11:37:51;5.43;;;1.67;;
9739;SDS011;4909;42.680;26.324;2023-02-02T11:40:25;6.90;;;2.00;;
9739;SDS011;4909;42.680;26.324;2023-02-02T11:42:55;4.23;;;1.60;;
9739;SDS011;4909;42.680;26.324;2023-02-02T11:45:25;4.90;;;1.67;;
9739;SDS011;4909;42.680;26.324;2023-02-02T11:47:59;11.73;;;3.10;;
9739;SDS011;4909;42.680;26.324;2023-02-02T11:50:29;6.70;;;2.27;;
9739;SDS011;4909;42.680;26.324;2023-02-02T11:52:56;7.83;;;2.30;;
9739;SDS011;4909;42.680;26.324;2023-02-02T11:55:27;9.83;;;2.80;;
9739;SDS011;4909;42.680;26.324;2023-02-02T12:00:50;5.40;;;1.77;;
9739;SDS011;4909;42.680;26.324;2023-02-02T12:03:22;6.40;;;2.33;;
9739;SDS011;4909;42.680;26.324;2023-02-02T12:05:54;8.17;;;2.37;;
9739;SDS011;4909;42.680;26.324;2023-02-02T12:08:21;6.27;;;2.00;;
9739;SDS011;4909;42.680;26.324;2023-02-02T12:10:53;5.77;;;2.10;;
9739;SDS011;4909;42.680;26.324;2023-02-02T12:16:22;9.53;;;2.93;;
9739;SDS011;4909;42.680;26.324;2023-02-02T12:19:06;8.40;;;2.60;;
9739;SDS011;4909;42.680;26.324;2023-02-02T12:21:49;5.23;;;1.97;;
9739;SDS011;4909;42.680;26.324;2023-02-02T12:24:28;4.63;;;1.73;;
9739;SDS011;4909;42.680;26.324;2023-02-02T12:26:59;6.93;;;2.30;;
9739;SDS011;4909;42.680;26.324;2023-02-02T12:32:51;6.47;;;2.17;;
9739;SDS011;4909;42.680;26.324;2023-02-02T12:35:32;7.67;;;2.57;;
9739;SDS011;4909;42.680;26.324;2023-02-02T12:38:16;8.70;;;2.60;;
9739;SDS011;4909;42.680;26.324;2023-02-02T12:41:07;3.67;;;1.60;;
9739;SDS011;4909;42.680;26.324;2023-02-02T12:43:47;3.90;;;1.60;;
9739;SDS011;4909;42.680;26.324;2023-02-02T12:46:25;4.50;;;1.80;;
9739;SDS011;4909;42.680;26.324;2023-02-02T12:49:15;6.90;;;2.10;;
9739;SDS011;4909;42.680;26.324;2023-02-02T12:52:08;5.00;;;1.67;;
9739;SDS011;4909;42.680;26.324;2023-02-02T12:54:58;6.83;;;2.20;;
9739;SDS011;4909;42.680;26.324;2023-02-02T12:57:39;5.47;;;1.90;;
9739;SDS011;4909;42.680;26.324;2023-02-02T13:00:22;4.13;;;1.53;;
9739;SDS011;4909;42.680;26.324;2023-02-02T13:03:06;3.10;;;1.43;;
9739;SDS011;4909;42.680;26.324;2023-02-02T13:05:51;3.60;;;1.47;;
9739;SDS011;4909;42.680;26.324;2023-02-02T13:08:28;3.03;;;1.43;;
9739;SDS011;4909;42.680;26.324;2023-02-02T13:11:02;3.20;;;1.43;;
9739;SDS011;4909;42.680;26.324;2023-02-02T13:13:52;3.83;;;1.63;;
9739;SDS011;4909;42.680;26.324;2023-02-02T13:16:19;7.50;;;2.37;;
9739;SDS011;4909;42.680;26.324;2023-02-02T13:18:50;2.77;;;1.40;;
9739;SDS011;4909;42.680;26.324;2023-02-02T13:21:21;2.20;;;1.33;;
9739;SDS011;4909;42.680;26.324;2023-02-02T13:23:51;4.00;;;1.87;;
9739;SDS011;4909;42.680;26.324;2023-02-02T13:26:21;4.23;;;1.90;;
9739;SDS011;4909;42.680;26.324;2023-02-02T13:28:53;4.27;;;1.70;;
9739;SDS011;4909;42.680;26.324;2023-02-02T13:31:24;4.17;;;1.70;;
9739;SDS011;4909;42.680;26.324;2023-02-02T13:34:01;3.70;;;1.63;;
9739;SDS011;4909;42.680;26.324;2023-02-02T13:36:38;6.23;;;2.03;;
9739;SDS011;4909;42.680;26.324;2023-02-02T13:39:14;5.53;;;2.00;;
9739;SDS011;4909;42.680;26.324;2023-02-02T13:41:44;3.80;;;1.80;;
9739;SDS011;4909;42.680;26.324;2023-02-02T13:44:13;3.77;;;1.70;;
9739;SDS011;4909;42.680;26.324;2023-02-02T13:46:44;3.30;;;1.53;;
9739;SDS011;4909;42.680;26.324;2023-02-02T13:49:18;4.67;;;1.87;;
9739;SDS011;4909;42.680;26.324;2023-02-02T13:51:53;4.90;;;1.73;;
9739;SDS011;4909;42.680;26.324;2023-02-02T14:00:29;5.77;;;1.93;;
9739;SDS011;4909;42.680;26.324;2023-02-02T14:03:00;9.33;;;2.43;;
9739;SDS011;4909;42.680;26.324;2023-02-02T14:05:32;5.30;;;1.70;;
9739;SDS011;4909;42.680;26.324;2023-02-02T14:08:02;6.37;;;1.93;;
9739;SDS011;4909;42.680;26.324;2023-02-02T14:10:33;6.57;;;1.83;;
9739;SDS011;4909;42.680;26.324;2023-02-02T14:13:05;9.17;;;2.40;;
9739;SDS011;4909;42.680;26.324;2023-02-02T14:15:54;3.90;;;1.23;;
9739;SDS011;4909;42.680;26.324;2023-02-02T14:24:44;5.53;;;1.70;;
9739;SDS011;4909;42.680;26.324;2023-02-02T14:30:22;2.93;;;1.30;;
9739;SDS011;4909;42.680;26.324;2023-02-02T14:32:51;6.17;;;1.83;;
9739;SDS011;4909;42.680;26.324;2023-02-02T14:47:46;6.27;;;1.87;;
9739;SDS011;4909;42.680;26.324;2023-02-02T14:50:15;6.80;;;1.97;;
9739;SDS011;4909;42.680;26.324;2023-02-02T14:52:50;3.50;;;1.20;;
9739;SDS011;4909;42.680;26.324;2023-02-02T14:55:25;3.83;;;1.33;;
9739;SDS011;4909;42.680;26.324;2023-02-02T14:57:54;3.53;;;1.20;;
9739;SDS011;4909;42.680;26.324;2023-02-02T15:00:24;5.83;;;1.70;;
9739;SDS011;4909;42.680;26.324;2023-02-02T15:02:54;4.90;;;1.50;;
9739;SDS011;4909;42.680;26.324;2023-02-02T15:05:34;4.83;;;1.53;;
9739;SDS011;4909;42.680;26.324;2023-02-02T15:08:05;4.83;;;1.57;;
9739;SDS011;4909;42.680;26.324;2023-02-02T15:13:55;7.27;;;2.07;;
9739;SDS011;4909;42.680;26.324;2023-02-02T15:16:31;3.80;;;1.37;;
9739;SDS011;4909;42.680;26.324;2023-02-02T15:19:04;3.63;;;1.30;;
9739;SDS011;4909;42.680;26.324;2023-02-02T15:21:38;3.73;;;1.23;;
9739;SDS011;4909;42.680;26.324;2023-02-02T15:24:14;5.13;;;1.50;;
9739;SDS011;4909;42.680;26.324;2023-02-02T15:26:47;6.17;;;1.77;;
9739;SDS011;4909;42.680;26.324;2023-02-02T15:29:16;5.60;;;1.67;;
9739;SDS011;4909;42.680;26.324;2023-02-02T15:31:53;7.70;;;2.10;;
9739;SDS011;4909;42.680;26.324;2023-02-02T15:34:22;6.37;;;1.73;;
9739;SDS011;4909;42.680;26.324;2023-02-02T15:36:52;5.83;;;1.63;;
9739;SDS011;4909;42.680;26.324;2023-02-02T15:39:25;7.10;;;2.03;;
9739;SDS011;4909;42.680;26.324;2023-02-02T15:41:56;5.43;;;1.57;;
9739;SDS011;4909;42.680;26.324;2023-02-02T15:44:43;7.43;;;1.90;;
9739;SDS011;4909;42.680;26.324;2023-02-02T15:47:11;8.17;;;2.20;;
9739;SDS011;4909;42.680;26.324;2023-02-02T15:49:40;6.80;;;1.97;;
9739;SDS011;4909;42.680;26.324;2023-02-02T15:52:09;7.53;;;2.00;;
9739;SDS011;4909;42.680;26.324;2023-02-02T15:54:47;3.27;;;1.10;;
9739;SDS011;4909;42.680;26.324;2023-02-02T15:57:25;4.43;;;1.47;;
9739;SDS011;4909;42.680;26.324;2023-02-02T15:59:54;5.57;;;1.67;;
9739;SDS011;4909;42.680;26.324;2023-02-02T16:02:25;6.90;;;1.93;;
9739;SDS011;4909;42.680;26.324;2023-02-02T16:04:57;3.87;;;1.20;;
9739;SDS011;4909;42.680;26.324;2023-02-02T16:07:29;7.20;;;2.07;;
9739;SDS011;4909;42.680;26.324;2023-02-02T16:10:00;4.97;;;1.53;;
9739;SDS011;4909;42.680;26.324;2023-02-02T16:12:30;5.50;;;1.60;;
9739;SDS011;4909;42.680;26.324;2023-02-02T16:14:59;5.43;;;1.70;;